Cooperative Spirit — WDB9878 — position and weather

sailwx.info

Track history (hours):
 
Tides and Currents Weather Stations Pressure Air Temp Water Temp Dewpoint Dewpoint Depression Visibility Wind Speed Wind Dir Waves Ship Positions

Cooperative Spirit

Owner: American River Transportation Company, St Louis, MO. More information available from US FCC via Universal Licensing System and Coast Guard Vessel Documentation Center.

Last reported at 2017-Dec-02 09:57 UTC. Time now 2017-Dec-12 12:39 UTC.
Position N 29°57' W 090°18'.
Warning: this ship's position is 10 days out of date.

Length 61 m; draft 3.4 m.

Type: Towing. MMSI: 366984350.

Date/timePositionNaut miles runAvg speedWind from/ knotsBaromVisibWave heightAir tempDewpointWater temp
2017-Dec-02 09:57N 29°57' W 090°18'3 0.6
2017-Dec-02 04:18N 29°56' W 090°22'111 3.1
2017-Nov-30 16:31N 31°32' W 091°28'0 0.3
2017-Nov-30 16:30N 31°32' W 091°28'1 2.3
2017-Nov-30 16:00N 31°32' W 091°27'28 2.8
2017-Nov-30 05:55N 31°58' W 091°11'4 6.7
2017-Nov-30 05:17N 31°59' W 091°07'2 7.0
2017-Nov-30 05:00N 32°00' W 091°05'4 7.2
2017-Nov-30 04:30N 32°03' W 091°03'4 7.3
2017-Nov-30 04:00N 32°06' W 091°06'2 3.6
2017-Nov-30 03:30N 32°08' W 091°05'3 7.0
2017-Nov-30 03:00N 32°07' W 091°01'4 7.2
2017-Nov-30 02:30N 32°11' W 091°00'3 6.9
2017-Nov-30 02:00N 32°14' W 090°59'4 7.3
2017-Nov-30 01:30N 32°17' W 090°56'4 7.3
2017-Nov-30 01:00N 32°20' W 090°54'3 6.6
2017-Nov-30 00:30N 32°21' W 090°58'3 5.8
2017-Nov-30 00:00N 32°23' W 090°60'3 6.3
2017-Nov-29 23:30N 32°26' W 091°02'4 7.4
2017-Nov-29 23:00N 32°27' W 091°06'3 6.8
2017-Nov-29 22:30N 32°31' W 091°07'4 7.1
2017-Nov-29 22:00N 32°34' W 091°07'4 7.5
2017-Nov-29 21:30N 32°37' W 091°09'  
Track history (hours):
 
Tides and Currents Weather Stations Pressure Air Temp Water Temp Dewpoint Dewpoint Depression Visibility Wind Speed Wind Dir Waves Ship Positions

Cooperative Spirit

Owner: American River Transportation Company, St Louis, MO. More information available from US FCC via Universal Licensing System and Coast Guard Vessel Documentation Center.

Last reported at 2017-Dec-02 09:57 UTC. Time now 2017-Dec-12 12:39 UTC.
Position N 29°57' W 090°18'.
Warning: this ship's position is 10 days out of date.

Length 61 m; draft 3.4 m.

Type: Towing. MMSI: 366984350.

Date/timePositionNaut miles runAvg speedWind from/ knotsBaromVisibWave heightAir tempDewpointWater temp
2017-Dec-02 09:57N 29°57' W 090°18'3 0.6
2017-Dec-02 04:18N 29°56' W 090°22'111 3.1
2017-Nov-30 16:31N 31°32' W 091°28'0 0.3
2017-Nov-30 16:30N 31°32' W 091°28'1 2.3
2017-Nov-30 16:00N 31°32' W 091°27'28 2.8
2017-Nov-30 05:55N 31°58' W 091°11'4 6.7
2017-Nov-30 05:17N 31°59' W 091°07'2 7.0
2017-Nov-30 05:00N 32°00' W 091°05'4 7.2
2017-Nov-30 04:30N 32°03' W 091°03'4 7.3
2017-Nov-30 04:00N 32°06' W 091°06'2 3.6
2017-Nov-30 03:30N 32°08' W 091°05'3 7.0
2017-Nov-30 03:00N 32°07' W 091°01'4 7.2
2017-Nov-30 02:30N 32°11' W 091°00'3 6.9
2017-Nov-30 02:00N 32°14' W 090°59'4 7.3
2017-Nov-30 01:30N 32°17' W 090°56'4 7.3
2017-Nov-30 01:00N 32°20' W 090°54'3 6.6
2017-Nov-30 00:30N 32°21' W 090°58'3 5.8
2017-Nov-30 00:00N 32°23' W 090°60'3 6.3
2017-Nov-29 23:30N 32°26' W 091°02'4 7.4
2017-Nov-29 23:00N 32°27' W 091°06'3 6.8
2017-Nov-29 22:30N 32°31' W 091°07'4 7.1
2017-Nov-29 22:00N 32°34' W 091°07'4 7.5
2017-Nov-29 21:30N 32°37' W 091°09'  

Dump ship's entire track history